Time;durP1;ratioP1;P1;durP2;ratioP2;P2;SDS_P1;SDS_P2;PMS_P1;PMS_P2;Temp;Humidity;BMP_temperature;BMP_pressure;BME280_temperature;BME280_humidity;BME280_pressure;Samples;Min_cycle;Max_cycle;Signal;HPM_P1;HPM_P2
2023/05/07 00:01:07;;;;;;;4.55;2.42;;;;;;;12.31;100.00;100942.69;5003404;28;20033;-76
2023/05/07 00:03:33;;;;;;;5.55;3.45;;;;;;;11.60;100.00;100818.06;5020187;28;20044;-74
2023/05/07 00:05:58;;;;;;;4.78;2.53;;;;;;;11.62;100.00;100832.09;5016096;28;20886;-75
2023/05/07 00:08:24;;;;;;;10.70;2.90;;;;;;;11.30;100.00;100800.44;5004870;28;20123;-75
2023/05/07 00:10:49;;;;;;;4.65;2.78;;;;;;;12.04;100.00;100954.94;5004149;28;20056;-75
2023/05/07 00:13:15;;;;;;;6.70;2.75;;;;;;;11.97;100.00;100941.78;5010157;28;20045;-75
2023/05/07 00:15:40;;;;;;;6.55;2.95;;;;;;;12.01;100.00;100947.03;5019916;28;20030;-75
2023/05/07 00:18:06;;;;;;;3.53;2.67;;;;;;;11.84;100.00;100935.53;5016442;28;20034;-75
2023/05/07 00:20:31;;;;;;;7.95;2.88;;;;;;;11.80;100.00;100918.91;5014550;28;20478;-73
2023/05/07 00:22:57;;;;;;;4.22;2.53;;;;;;;11.59;100.00;100888.16;5013784;28;20070;-72
2023/05/07 00:25:22;;;;;;;5.65;3.17;;;;;;;11.05;100.00;100802.09;5022924;28;20037;-75
2023/05/07 00:27:48;;;;;;;4.80;2.60;;;;;;;11.27;100.00;100805.72;5006904;28;20033;-74
2023/05/07 00:30:13;;;;;;;4.70;3.05;;;;;;;12.35;100.00;100949.72;5010472;28;20073;-71
2023/05/07 00:32:39;;;;;;;4.13;3.47;;;;;;;12.10;100.00;100901.44;5020996;28;20056;-74
2023/05/07 00:35:05;;;;;;;7.60;2.97;;;;;;;11.69;100.00;100838.25;5019649;28;20052;-74
2023/05/07 00:37:31;;;;;;;3.97;2.05;;;;;;;12.02;100.00;100892.69;5008775;28;20077;-75
2023/05/07 00:39:57;;;;;;;5.45;1.75;;;;;;;12.16;100.00;100958.47;5017465;28;20030;-74
2023/05/07 00:42:22;;;;;;;3.75;2.80;;;;;;;11.73;100.00;100924.09;5012100;28;20033;-74
2023/05/07 00:44:48;;;;;;;3.33;2.08;;;;;;;11.33;100.00;100834.59;5016583;28;20061;-75
2023/05/07 00:47:14;;;;;;;5.22;2.28;;;;;;;10.62;100.00;100771.28;5019604;28;20042;-73
2023/05/07 00:49:44;;;;;;;3.83;2.20;;;;;;;11.74;100.00;100958.31;5015457;28;20171;-76
2023/05/07 00:52:13;;;;;;;3.70;1.85;;;;;;;10.89;100.00;100817.81;5009852;28;20363;-72
2023/05/07 00:54:40;;;;;;;2.92;1.60;;;;;;;11.12;100.00;100814.38;5029797;28;20033;-75
2023/05/07 00:57:06;;;;;;;4.07;1.88;;;;;;;11.49;100.00;100862.69;5034612;28;20523;-75
2023/05/07 00:59:32;;;;;;;4.25;2.08;;;;;;;11.55;100.00;100933.69;5036191;28;20042;-74
2023/05/07 01:01:58;;;;;;;4.07;2.63;;;;;;;10.50;100.00;100816.69;5026076;28;20038;-75
2023/05/07 01:04:24;;;;;;;4.03;1.90;;;;;;;10.55;100.00;100822.84;5033356;28;20042;-76
2023/05/07 01:06:51;;;;;;;4.55;2.47;;;;;;;10.69;100.00;100849.16;5017943;28;20567;-74
2023/05/07 01:09:19;;;;;;;3.30;2.15;;;;;;;11.27;100.00;100956.31;5006687;28;20437;-74
2023/05/07 01:11:45;;;;;;;4.55;2.05;;;;;;;10.51;100.00;100849.03;5025787;28;20140;-73
2023/05/07 01:14:11;;;;;;;5.13;2.72;;;;;;;11.11;100.00;100960.59;5016295;28;20061;-74
2023/05/07 01:16:38;;;;;;;3.78;2.33;;;;;;;10.63;100.00;100866.63;5021347;28;20054;-73
2023/05/07 01:19:04;;;;;;;3.75;1.77;;;;;;;10.66;100.00;100858.78;5017632;28;21188;-73
2023/05/07 01:21:32;;;;;;;3.78;1.88;;;;;;;11.33;100.00;100963.34;5029889;28;20033;-73
2023/05/07 01:23:58;;;;;;;3.45;1.95;;;;;;;10.96;100.00;100934.25;5038497;28;20582;-75
2023/05/07 01:26:24;;;;;;;4.97;2.15;;;;;;;10.91;100.00;100942.09;5014942;28;20054;-73
2023/05/07 01:28:50;;;;;;;4.15;2.40;;;;;;;10.85;100.00;100923.66;5011607;28;20042;-73
2023/05/07 01:31:17;;;;;;;5.15;2.22;;;;;;;10.10;100.00;100799.75;5014497;28;20123;-73
2023/05/07 01:33:45;;;;;;;4.80;2.88;;;;;;;10.02;100.00;100794.44;5008697;28;20045;-74
2023/05/07 01:36:13;;;;;;;4.80;2.03;;;;;;;10.13;100.00;100832.09;5017779;28;20065;-73
2023/05/07 01:38:39;;;;;;;3.58;2.17;;;;;;;9.94;100.00;100799.59;5028993;28;20041;-73
2023/05/07 01:41:05;;;;;;;4.15;2.20;;;;;;;10.07;100.00;100828.56;5024931;28;20408;-76
2023/05/07 01:43:30;;;;;;;5.82;2.78;;;;;;;9.33;100.00;100696.00;5033292;28;20056;-73
2023/05/07 01:45:57;;;;;;;5.75;2.78;;;;;;;10.16;100.00;100844.38;5030242;28;20132;-73
2023/05/07 01:48:24;;;;;;;6.82;2.17;;;;;;;10.50;100.00;100919.00;5031263;28;20033;-73
2023/05/07 01:50:51;;;;;;;5.13;3.30;;;;;;;10.39;100.00;100910.16;5030402;28;20140;-73
2023/05/07 01:53:16;;;;;;;5.10;2.42;;;;;;;9.75;100.00;100784.59;5033274;28;20053;-74
2023/05/07 01:55:42;;;;;;;5.13;2.83;;;;;;;10.53;100.00;100926.91;5030390;28;20417;-75
2023/05/07 01:58:07;;;;;;;5.50;2.97;;;;;;;9.89;100.00;100811.78;5010644;28;20440;-74
2023/05/07 02:00:33;;;;;;;5.03;3.08;;;;;;;10.42;100.00;100909.31;5007629;28;20037;-74
2023/05/07 02:02:58;;;;;;;4.05;2.70;;;;;;;10.32;100.00;100906.63;5030266;28;20045;-75
2023/05/07 02:05:24;;;;;;;4.63;2.72;;;;;;;10.24;100.00;100894.28;5033332;28;20413;-76
2023/05/07 02:07:49;;;;;;;7.07;4.55;;;;;;;10.51;100.00;100880.53;5030335;28;20499;-74
2023/05/07 02:10:15;;;;;;;7.90;3.08;;;;;;;10.85;100.00;100905.28;5015910;28;20050;-74
2023/05/07 02:12:40;;;;;;;6.50;3.20;;;;;;;10.68;100.00;100918.28;5014071;28;20060;-73
2023/05/07 02:15:06;;;;;;;7.55;3.10;;;;;;;10.39;100.00;100838.47;5013423;28;20103;-73
2023/05/07 02:17:32;;;;;;;4.60;2.75;;;;;;;9.43;100.00;100777.28;5019549;28;20119;-73
2023/05/07 02:19:58;;;;;;;4.10;2.60;;;;;;;9.29;100.00;100776.25;5021367;28;20073;-74
2023/05/07 02:22:24;;;;;;;5.65;3.10;;;;;;;9.88;100.00;100875.59;5029587;28;20057;-74
2023/05/07 02:24:49;;;;;;;6.88;3.17;;;;;;;9.19;100.00;100753.44;5042618;28;20028;-75
2023/05/07 02:27:15;;;;;;;7.60;2.92;;;;;;;9.21;100.00;100770.06;5016664;28;20052;-74
2023/05/07 02:29:40;;;;;;;8.73;5.25;;;;;;;9.78;100.00;100883.31;5008938;28;20072;-73
2023/05/07 02:32:06;;;;;;;4.60;2.60;;;;;;;10.12;100.00;100869.69;5028872;28;20050;-73
2023/05/07 02:34:31;;;;;;;6.65;3.65;;;;;;;10.42;100.00;100881.34;5036656;28;20045;-74
2023/05/07 02:36:57;;;;;;;7.65;2.88;;;;;;;10.28;100.00;100890.81;5031921;28;20029;-74
2023/05/07 02:39:22;;;;;;;4.75;2.83;;;;;;;10.46;100.00;100898.84;5026755;28;20033;-74
2023/05/07 02:41:47;;;;;;;4.40;2.88;;;;;;;9.31;100.00;100774.53;5009661;28;20057;-74
2023/05/07 02:44:13;;;;;;;5.57;3.05;;;;;;;9.83;100.00;100887.75;5006852;28;20635;-75
2023/05/07 02:46:38;;;;;;;6.40;3.20;;;;;;;9.45;100.00;100817.47;5013760;28;20393;-73
2023/05/07 02:49:04;;;;;;;5.47;2.53;;;;;;;9.92;100.00;100897.44;5021462;28;20041;-74
2023/05/07 02:51:30;;;;;;;5.70;3.20;;;;;;;9.80;100.00;100866.75;5010330;28;20063;-74
2023/05/07 02:53:55;;;;;;;5.05;2.72;;;;;;;10.12;100.00;100848.72;5007328;28;20053;-73
2023/05/07 02:56:21;;;;;;;7.10;2.88;;;;;;;10.18;100.00;100870.59;5012289;28;20124;-75
2023/05/07 02:58:47;;;;;;;4.18;2.85;;;;;;;10.16;100.00;100844.38;5005466;28;20042;-74
2023/05/07 03:01:13;;;;;;;5.15;2.80;;;;;;;10.49;100.00;100885.78;5016064;28;20135;-73
2023/05/07 03:03:39;;;;;;;6.95;3.70;;;;;;;9.76;100.00;100786.31;5015788;28;20080;-73
2023/05/07 03:06:06;;;;;;;7.10;2.97;;;;;;;9.96;100.00;100901.00;5013143;28;20077;-77
2023/05/07 03:08:32;;;;;;;5.80;3.45;;;;;;;9.01;100.00;100759.34;5011583;28;20041;-72
2023/05/07 03:10:58;;;;;;;4.95;3.08;;;;;;;8.96;100.00;100782.84;5007523;28;20045;-73
2023/05/07 03:13:23;;;;;;;5.25;3.13;;;;;;;9.62;100.00;100893.66;5001457;28;20045;-73
2023/05/07 03:15:48;;;;;;;6.45;3.08;;;;;;;9.37;100.00;100868.03;5018609;28;20034;-74
2023/05/07 03:18:14;;;;;;;5.60;2.97;;;;;;;9.42;100.00;100863.72;5016856;28;20050;-73
2023/05/07 03:20:39;;;;;;;3.97;2.40;;;;;;;8.86;100.00;100774.00;5013875;28;20049;-73
2023/05/07 03:23:05;;;;;;;5.40;3.22;;;;;;;10.01;100.00;100901.91;5015187;28;20052;-77
2023/05/07 03:25:31;;;;;;;6.20;2.53;;;;;;;9.51;100.00;100773.00;5020152;28;20481;-73
2023/05/07 03:27:57;;;;;;;4.32;2.47;;;;;;;10.05;100.00;100851.28;5016348;28;20037;-73
2023/05/07 03:30:22;;;;;;;7.15;2.90;;;;;;;9.67;100.00;100776.66;5012198;28;20548;-75
2023/05/07 03:32:48;;;;;;;4.80;2.90;;;;;;;10.18;100.00;100908.19;5010850;28;20085;-75
2023/05/07 03:35:14;;;;;;;9.80;3.08;;;;;;;9.27;100.00;100767.50;5017038;28;20042;-75
2023/05/07 03:37:40;;;;;;;5.80;3.53;;;;;;;9.89;100.00;100892.19;5018746;28;20108;-77
2023/05/07 03:40:06;;;;;;;6.07;3.78;;;;;;;9.64;100.00;100880.53;5006688;28;20477;-76
2023/05/07 03:42:32;;;;;;;6.10;3.00;;;;;;;9.69;100.00;100912.91;5010195;28;20037;-73
2023/05/07 03:44:57;;;;;;;8.32;2.95;;;;;;;9.96;100.00;100924.59;5016559;28;20050;-75
2023/05/07 03:47:22;;;;;;;6.15;2.42;;;;;;;9.22;100.00;100800.59;5009219;28;20050;-74
2023/05/07 03:49:49;;;;;;;5.07;2.53;;;;;;;10.07;100.00;100921.22;5017710;28;20054;-74
2023/05/07 03:52:14;;;;;;;4.18;2.35;;;;;;;9.94;100.00;100916.69;5005994;28;20774;-73
2023/05/07 03:54:40;;;;;;;4.30;2.65;;;;;;;9.55;100.00;100796.59;5012691;28;20034;-73
2023/05/07 03:57:06;;;;;;;3.63;2.10;;;;;;;10.48;100.00;100925.13;5014538;28;20397;-74
2023/05/07 03:59:31;;;;;;;4.95;2.70;;;;;;;10.47;100.00;100910.25;5021515;28;20056;-74
2023/05/07 04:01:57;;;;;;;5.15;2.72;;;;;;;10.29;100.00;100885.59;5038884;28;20041;-75
2023/05/07 04:04:23;;;;;;;4.63;2.97;;;;;;;9.89;100.00;100894.81;5029286;28;20045;-74
2023/05/07 04:06:48;;;;;;;3.33;1.92;;;;;;;9.62;100.00;100815.03;5038188;28;20033;-75
2023/05/07 04:09:14;;;;;;;4.50;2.83;;;;;;;10.33;100.00;100955.59;5028301;28;20055;-74
2023/05/07 04:11:40;;;;;;;4.70;2.50;;;;;;;9.86;100.00;100900.88;5025520;28;20049;-75
2023/05/07 04:14:06;;;;;;;3.25;2.17;;;;;;;10.23;100.00;100965.94;5029895;28;20061;-77
2023/05/07 04:16:31;;;;;;;5.30;3.03;;;;;;;10.30;100.00;100968.69;5036509;28;20140;-74
2023/05/07 04:18:57;;;;;;;5.38;2.15;;;;;;;9.48;100.00;100829.72;5034365;28;20108;-73
2023/05/07 04:21:22;;;;;;;4.25;2.63;;;;;;;10.20;100.00;100960.66;5025607;28;20477;-74
2023/05/07 04:23:48;;;;;;;4.95;2.58;;;;;;;10.24;100.00;100957.22;5018067;28;20053;-75
2023/05/07 04:26:15;;;;;;;4.57;2.75;;;;;;;10.41;100.00;100967.91;5014715;28;20053;-73
2023/05/07 04:28:40;;;;;;;3.42;2.35;;;;;;;10.38;100.00;100983.63;5013025;28;20052;-75
2023/05/07 04:31:06;;;;;;;3.97;2.47;;;;;;;9.80;100.00;100865.88;5008794;28;20026;-74
2023/05/07 04:33:32;;;;;;;4.38;2.25;;;;;;;9.69;100.00;100848.31;5019082;28;20030;-74
2023/05/07 04:36:02;;;;;;;3.53;2.13;;;;;;;10.47;100.00;100968.84;5016977;28;20038;-73
2023/05/07 04:38:31;;;;;;;10.35;2.58;;;;;;;10.60;100.00;100988.19;5015279;28;20057;-73
2023/05/07 04:40:57;;;;;;;4.25;2.53;;;;;;;9.85;100.00;100848.44;5010175;28;20045;-74
2023/05/07 04:43:23;;;;;;;6.15;3.10;;;;;;;10.33;100.00;100904.88;5001673;28;20042;-75
2023/05/07 04:45:51;;;;;;;2.88;1.70;;;;;;;10.10;100.00;100849.56;5011108;28;20034;-74
2023/05/07 04:48:18;;;;;;;3.03;1.98;;;;;;;10.34;100.00;100868.16;5001838;28;20524;-75
2023/05/07 04:50:46;;;;;;;5.68;2.55;;;;;;;11.17;100.00;100986.03;5009932;28;20050;-74
2023/05/07 04:53:12;;;;;;;4.00;2.22;;;;;;;10.32;100.00;100822.69;5023007;28;20083;-75
2023/05/07 04:55:37;;;;;;;4.43;2.13;;;;;;;11.03;100.00;100999.06;5014505;28;20053;-75
2023/05/07 04:58:04;;;;;;;10.40;2.80;;;;;;;10.35;100.00;100869.94;5012097;28;20080;-74
2023/05/07 05:00:30;;;;;;;4.47;2.17;;;;;;;10.33;100.00;100869.03;5007504;28;20038;-76
2023/05/07 05:02:56;;;;;;;3.10;1.83;;;;;;;10.51;100.00;100865.69;5004991;28;20150;-75
2023/05/07 05:05:21;;;;;;;4.57;2.45;;;;;;;11.18;100.00;100961.50;5004994;28;20049;-74
2023/05/07 05:07:46;;;;;;;5.25;2.47;;;;;;;11.51;100.00;100999.38;5015485;28;20053;-73
2023/05/07 05:10:12;;;;;;;3.63;2.13;;;;;;;11.13;100.00;100914.22;5000771;28;20057;-74
2023/05/07 05:12:38;;;;;;;3.35;1.75;;;;;;;11.62;100.00;100966.13;5011348;28;20042;-74
2023/05/07 05:15:04;;;;;;;4.07;2.17;;;;;;;11.59;100.00;100851.34;5004444;28;20786;-74
2023/05/07 05:17:30;;;;;;;3.88;2.72;;;;;;;12.00;100.00;100892.66;5017284;28;20034;-74
2023/05/07 05:19:56;;;;;;;5.90;2.03;;;;;;;13.38;100.00;100996.25;5007250;28;20726;-75
2023/05/07 05:22:21;;;;;;;3.55;2.13;;;;;;;14.12;100.00;101002.16;5022065;28;20349;-73
2023/05/07 05:24:46;;;;;;;6.32;2.70;;;;;;;13.94;100.00;101016.31;5015161;28;20037;-75
2023/05/07 05:27:12;;;;;;;6.18;2.42;;;;;;;13.64;100.00;100910.03;5014451;28;20788;-74
2023/05/07 05:29:37;;;;;;;3.70;2.50;;;;;;;15.02;100.00;101008.59;5014655;28;20502;-75
2023/05/07 05:32:03;;;;;;;3.55;1.88;;;;;;;14.50;100.00;100904.22;5016146;28;20038;-75
2023/05/07 05:34:28;;;;;;;4.97;2.58;;;;;;;15.56;100.00;100989.56;5014959;28;20489;-73
2023/05/07 05:36:54;;;;;;;4.07;1.75;;;;;;;15.10;100.00;100914.25;5017691;28;20029;-74
2023/05/07 05:39:19;;;;;;;4.90;3.03;;;;;;;16.77;92.00;101030.31;5011426;28;20030;-73
2023/05/07 05:41:45;;;;;;;4.95;2.53;;;;;;;16.81;96.21;101010.88;5006137;28;20040;-72
2023/05/07 05:44:10;;;;;;;3.00;1.88;;;;;;;16.78;95.53;100980.84;5012898;28;20387;-73
2023/05/07 05:46:35;;;;;;;5.45;2.65;;;;;;;17.05;95.94;100945.94;5004689;28;20073;-72
2023/05/07 05:49:01;;;;;;;3.60;2.13;;;;;;;17.27;88.15;100897.78;5009022;28;20072;-74
2023/05/07 05:51:26;;;;;;;3.75;2.05;;;;;;;16.00;92.05;100922.00;5013561;28;20410;-76
2023/05/07 05:53:52;;;;;;;2.30;1.27;;;;;;;16.03;95.88;101001.34;5014920;28;20497;-74
2023/05/07 05:56:17;;;;;;;5.60;1.95;;;;;;;16.45;89.13;100922.19;5013789;28;20128;-74
2023/05/07 05:58:43;;;;;;;7.65;3.35;;;;;;;16.22;96.92;100988.75;5009843;28;20038;-75
2023/05/07 06:01:09;;;;;;;4.22;2.03;;;;;;;16.28;100.00;101001.03;5011284;28;20457;-80
2023/05/07 06:03:34;;;;;;;4.05;2.08;;;;;;;17.69;90.33;101004.84;5010141;28;20022;-74
2023/05/07 06:06:00;;;;;;;3.65;1.58;;;;;;;17.92;89.91;101011.50;5017253;28;20512;-72
2023/05/07 06:08:30;;;;;;;3.55;1.85;;;;;;;17.26;81.08;100992.41;5014741;28;20477;-73
2023/05/07 06:10:55;;;;;;;3.70;1.63;;;;;;;16.42;92.65;100939.00;5004058;28;20072;-74
2023/05/07 06:13:21;;;;;;;1.92;1.13;;;;;;;17.97;81.72;100902.53;5008842;28;20038;-74
2023/05/07 06:15:46;;;;;;;3.90;2.05;;;;;;;17.88;83.02;100933.69;5005846;28;20061;-73
2023/05/07 06:18:12;;;;;;;4.07;1.75;;;;;;;17.43;85.36;100972.66;5013040;28;20046;-75
2023/05/07 06:20:37;;;;;;;4.10;2.28;;;;;;;18.09;78.08;100915.53;5012190;28;20486;-74
2023/05/07 06:23:03;;;;;;;4.05;2.00;;;;;;;18.14;76.98;100895.94;5023190;28;20037;-74
2023/05/07 06:25:28;;;;;;;2.88;1.20;;;;;;;18.74;73.11;100999.94;5011670;28;20042;-74
2023/05/07 06:27:54;;;;;;;4.20;1.80;;;;;;;18.65;74.46;100989.50;5018348;28;20554;-75
2023/05/07 06:30:19;;;;;;;2.70;1.17;;;;;;;18.90;70.71;100955.25;5006664;28;20026;-74
2023/05/07 06:32:45;;;;;;;6.13;2.17;;;;;;;19.05;66.00;100864.41;5004141;28;20046;-74
2023/05/07 06:35:10;;;;;;;4.50;1.95;;;;;;;20.02;64.38;100984.13;5020374;28;20131;-73
2023/05/07 06:37:38;;;;;;;4.20;1.42;;;;;;;19.43;65.95;100878.38;5018337;28;20366;-78
2023/05/07 06:40:05;;;;;;;2.30;1.35;;;;;;;19.76;58.48;100956.47;5007739;28;20054;-75
2023/05/07 06:42:31;;;;;;;2.55;1.20;;;;;;;19.97;59.52;100976.25;5013956;28;20034;-74
2023/05/07 06:44:56;;;;;;;2.05;1.20;;;;;;;19.45;57.61;100897.84;5009079;28;20103;-72
2023/05/07 06:47:21;;;;;;;5.03;1.90;;;;;;;19.31;59.72;100881.41;5009333;28;20061;-73
2023/05/07 06:49:47;;;;;;;1.42;0.70;;;;;;;19.97;56.69;100988.69;5021985;28;20133;-74
2023/05/07 06:52:12;;;;;;;3.10;1.38;;;;;;;18.27;55.56;100893.00;5021909;28;20044;-74
2023/05/07 06:54:38;;;;;;;3.15;1.63;;;;;;;18.14;55.61;100876.44;5014488;28;20045;-72
2023/05/07 06:57:03;;;;;;;2.90;1.65;;;;;;;18.42;59.98;100945.75;5016291;28;20049;-75
2023/05/07 06:59:28;;;;;;;3.33;1.95;;;;;;;19.35;61.69;100976.22;5013492;28;20616;-74
2023/05/07 07:01:54;;;;;;;5.03;1.05;;;;;;;18.20;62.12;100971.94;5009216;28;20057;-76
2023/05/07 07:04:22;;;;;;;3.88;1.42;;;;;;;18.33;65.21;100884.84;5011788;28;20053;-75
2023/05/07 07:06:47;;;;;;;1.85;0.95;;;;;;;18.45;58.56;100862.41;5010629;28;20796;-74
2023/05/07 07:09:13;;;;;;;4.28;1.25;;;;;;;18.48;60.28;100886.28;5012719;28;20132;-74
2023/05/07 07:11:38;;;;;;;2.42;1.15;;;;;;;18.31;64.25;100884.91;5008485;28;20160;-72
2023/05/07 07:14:05;;;;;;;2.70;1.30;;;;;;;16.97;64.32;100886.00;5008176;28;20061;-73
2023/05/07 07:16:30;;;;;;;3.13;1.50;;;;;;;17.06;64.66;100998.06;5011822;28;20872;-76
2023/05/07 07:18:56;;;;;;;4.32;1.42;;;;;;;16.87;66.59;100887.94;5024544;28;20037;-75
2023/05/07 07:21:21;;;;;;;2.25;0.93;;;;;;;16.88;73.58;100836.69;5018299;28;20428;-74
2023/05/07 07:23:46;;;;;;;4.07;1.42;;;;;;;18.27;66.72;100993.94;5014167;28;20057;-75
2023/05/07 07:26:12;;;;;;;3.30;1.40;;;;;;;18.39;62.87;100996.31;5021450;28;20034;-73
2023/05/07 07:28:45;;;;;;;2.55;1.40;;;;;;;18.39;71.26;100990.13;5006119;28;20407;-73
2023/05/07 07:31:11;;;;;;;1.73;0.82;;;;;;;17.90;67.41;100907.13;5003887;28;20037;-74
2023/05/07 07:33:37;;;;;;;14.88;2.03;;;;;;;17.86;67.94;100913.41;5007140;28;21866;-74
2023/05/07 07:36:02;;;;;;;3.45;1.65;;;;;;;17.69;64.04;100919.03;5002297;28;20689;-74
2023/05/07 07:38:28;;;;;;;3.92;1.70;;;;;;;17.37;61.37;100888.75;5007858;28;20042;-74
2023/05/07 07:40:53;;;;;;;4.63;2.17;;;;;;;17.43;63.37;100883.31;5008618;28;20056;-74
2023/05/07 07:43:18;;;;;;;2.97;1.33;;;;;;;17.05;61.35;100884.09;5013097;28;20139;-74
2023/05/07 07:45:45;;;;;;;4.25;1.15;;;;;;;17.68;66.45;100987.19;5008050;28;20029;-73
2023/05/07 07:48:11;;;;;;;2.08;1.30;;;;;;;17.52;63.57;100890.22;5010881;28;20045;-73
2023/05/07 07:50:36;;;;;;;1.67;0.98;;;;;;;18.13;62.72;100984.50;5007402;28;20096;-74
2023/05/07 07:53:02;;;;;;;3.05;1.38;;;;;;;17.57;60.72;101001.56;5009931;28;20449;-73
2023/05/07 07:55:28;;;;;;;3.25;1.17;;;;;;;17.32;59.69;100916.25;5006756;28;20102;-72
2023/05/07 07:57:53;;;;;;;2.20;1.10;;;;;;;18.21;60.17;100994.06;5010381;28;20111;-69
2023/05/07 08:00:19;;;;;;;2.13;1.20;;;;;;;17.73;59.27;101011.84;5006902;28;20029;-71
2023/05/07 08:02:44;;;;;;;2.47;1.23;;;;;;;17.57;57.57;100985.66;5006408;28;20119;-71
2023/05/07 08:05:10;;;;;;;3.00;1.92;;;;;;;18.23;58.27;100994.91;5002877;28;20547;-70
2023/05/07 08:07:35;;;;;;;2.90;1.40;;;;;;;17.79;56.38;100877.25;5007693;28;20441;-74
2023/05/07 08:10:02;;;;;;;3.45;2.25;;;;;;;18.45;62.35;100913.81;5000525;28;20053;-69
2023/05/07 08:12:27;;;;;;;5.85;4.28;;;;;;;19.13;68.38;100974.16;5006495;28;20030;-73
2023/05/07 08:14:53;;;;;;;17.60;10.57;;;;;;;19.16;72.84;100949.25;5002921;28;20428;-73
2023/05/07 08:17:18;;;;;;;5.22;3.00;;;;;;;17.97;61.84;100900.75;5005887;28;20046;-75
2023/05/07 08:19:44;;;;;;;7.40;4.50;;;;;;;18.77;67.15;100904.16;5019172;28;20050;-76
2023/05/07 08:22:10;;;;;;;15.68;7.05;;;;;;;19.58;83.97;100948.97;5002462;28;20041;-75
2023/05/07 08:24:36;;;;;;;7.05;3.80;;;;;;;19.93;73.96;100966.59;5008101;28;20042;-77
2023/05/07 08:27:02;;;;;;;7.35;4.82;;;;;;;19.90;63.23;100961.38;5002698;28;20425;-75
2023/05/07 08:29:27;;;;;;;12.70;7.88;;;;;;;19.85;61.15;100944.63;5004656;28;20401;-73
2023/05/07 08:31:53;;;;;;;16.73;10.65;;;;;;;19.53;59.78;100857.72;5004478;28;20046;-73
2023/05/07 08:34:18;;;;;;;25.50;16.10;;;;;;;20.18;61.61;100853.91;4996703;28;20490;-75
2023/05/07 08:36:44;;;;;;;9.63;4.85;;;;;;;20.64;57.51;100919.94;4999794;28;20149;-75
2023/05/07 08:39:09;;;;;;;3.30;1.80;;;;;;;19.29;54.98;100846.88;5005069;28;20057;-75
2023/05/07 08:41:35;;;;;;;5.95;3.35;;;;;;;20.15;53.73;100955.28;4995712;28;20045;-77
2023/05/07 08:44:03;;;;;;;3.45;2.35;;;;;;;20.08;53.93;100853.34;5002233;28;20053;-76
2023/05/07 08:46:32;;;;;;;16.35;10.75;;;;;;;20.66;54.93;100925.25;4999666;28;20042;-74
2023/05/07 08:48:57;;;;;;;7.80;4.50;;;;;;;20.16;50.87;100864.66;5001042;28;20046;-75
2023/05/07 08:51:23;;;;;;;39.63;26.58;;;;;;;20.27;56.72;100815.44;5003049;28;20084;-73
2023/05/07 08:53:49;;;;;;;20.52;12.40;;;;;;;20.72;55.49;100847.69;4997809;28;20042;-76
2023/05/07 08:56:16;;;;;;;17.65;13.50;;;;;;;21.70;54.72;100940.25;4998658;28;20442;-78
2023/05/07 08:58:45;;;;;;;61.50;33.22;;;;;;;21.70;52.93;100913.53;4999694;28;20445;-77
2023/05/07 09:01:14;;;;;;;4.25;2.63;;;;;;;21.08;51.25;100938.03;4999553;28;20796;-77
2023/05/07 09:03:40;;;;;;;22.52;12.88;;;;;;;21.28;52.01;100819.84;5000672;28;20069;-76
2023/05/07 09:06:06;;;;;;;30.80;15.85;;;;;;;22.39;53.55;100928.66;4998993;28;20395;-76
2023/05/07 09:08:33;;;;;;;11.68;7.53;;;;;;;22.28;53.72;100867.59;4991951;28;20065;-76
2023/05/07 09:10:59;;;;;;;7.45;4.18;;;;;;;22.88;53.75;100913.22;5002890;28;20042;-77
2023/05/07 09:13:24;;;;;;;15.35;10.18;;;;;;;22.32;50.42;100817.53;5003410;28;20056;-75
2023/05/07 09:15:50;;;;;;;16.25;7.55;;;;;;;23.21;49.50;100901.13;5003157;28;20145;-74
2023/05/07 09:18:19;;;;;;;3.20;1.48;;;;;;;21.24;47.95;100925.88;4998082;28;20599;-76
2023/05/07 09:20:45;;;;;;;8.70;5.50;;;;;;;22.92;51.66;100917.50;5000290;28;20058;-76
2023/05/07 09:23:11;;;;;;;13.38;6.35;;;;;;;22.97;49.06;100827.19;5016201;28;20064;-76
2023/05/07 09:25:37;;;;;;;7.22;3.78;;;;;;;23.50;49.11;100923.91;5026770;28;20038;-76
2023/05/07 09:28:06;;;;;;;4.03;2.17;;;;;;;23.12;48.04;100831.00;5040091;28;20148;-75
2023/05/07 09:30:32;;;;;;;4.93;1.65;;;;;;;22.14;46.16;100932.28;5034105;28;20718;-80
2023/05/07 09:32:59;;;;;;;3.28;1.75;;;;;;;22.06;49.50;100918.38;5020305;28;20060;-77
2023/05/07 09:35:27;;;;;;;6.15;2.88;;;;;;;21.45;48.16;100828.13;5008005;28;20068;-75
2023/05/07 09:37:57;;;;;;;22.70;11.00;;;;;;;22.89;48.96;100895.34;5006698;28;20057;-75
2023/05/07 09:40:27;;;;;;;5.05;3.50;;;;;;;21.30;49.55;100745.91;5002570;28;20161;-76
2023/05/07 09:42:53;;;;;;;9.23;3.60;;;;;;;23.94;48.35;100900.44;4997105;28;20100;-74
2023/05/07 09:45:29;;;;;;;3.90;2.05;;;;;;;23.82;47.43;100886.75;4995825;28;20099;-76
2023/05/07 09:47:56;;;;;;;6.50;2.05;;;;;;;24.02;46.17;100883.97;5004269;28;20066;-75
2023/05/07 09:50:27;;;;;;;10.35;5.88;;;;;;;23.83;47.04;100886.66;5004601;28;20060;-76
2023/05/07 09:52:54;;;;;;;8.43;3.97;;;;;;;24.42;46.12;100904.34;5006954;28;20171;-76
2023/05/07 09:55:20;;;;;;;2.53;1.45;;;;;;;22.76;46.27;100858.44;5003676;28;20045;-76
2023/05/07 09:57:49;;;;;;;12.20;2.35;;;;;;;23.36;48.36;100885.22;5003655;28;20037;-78
2023/05/07 10:00:17;;;;;;;6.97;3.33;;;;;;;24.40;48.28;100887.47;4996561;28;20077;-70
2023/05/07 10:02:48;;;;;;;4.78;2.47;;;;;;;23.92;49.04;100824.56;4996800;28;20050;-74
2023/05/07 10:05:14;;;;;;;4.28;1.35;;;;;;;23.07;45.25;100875.84;5014551;28;20046;-74
2023/05/07 10:07:40;;;;;;;3.55;2.03;;;;;;;23.18;46.64;100883.41;5001543;28;20568;-75
2023/05/07 10:10:06;;;;;;;3.08;1.63;;;;;;;23.64;46.68;100865.19;5002401;28;20030;-79
2023/05/07 10:12:38;;;;;;;3.63;2.47;;;;;;;23.85;47.41;100777.56;5001364;28;20108;-75
2023/05/07 10:15:09;;;;;;;6.72;2.80;;;;;;;24.82;46.32;100878.19;4995186;28;20133;-74
2023/05/07 10:17:39;;;;;;;5.95;3.30;;;;;;;24.55;45.57;100872.41;4990654;28;20542;-73
2023/05/07 10:20:07;;;;;;;3.40;1.88;;;;;;;23.43;48.21;100871.56;4993005;28;20050;-74
2023/05/07 10:22:43;;;;;;;2.30;1.60;;;;;;;22.54;45.40;100884.34;4994063;28;20062;-74
2023/05/07 10:25:20;;;;;;;3.00;1.67;;;;;;;22.07;47.10;100871.13;4990107;28;20034;-76
2023/05/07 10:27:48;;;;;;;6.20;1.95;;;;;;;23.95;47.13;100842.31;4996145;28;20049;-73
2023/05/07 10:30:53;;;;;;;2.63;1.63;;;;;;;23.16;47.15;100850.47;4993459;28;20851;-75
2023/05/07 10:33:26;;;;;;;4.85;2.53;;;;;;;23.40;45.04;100821.69;5011977;28;20048;-73
2023/05/07 10:35:55;;;;;;;4.28;2.38;;;;;;;24.27;46.53;100752.22;5012041;28;20053;-75
2023/05/07 10:38:20;;;;;;;3.35;1.75;;;;;;;23.69;44.63;100855.13;5013083;28;20512;-74
2023/05/07 10:40:46;;;;;;;3.03;1.50;;;;;;;22.39;45.97;100829.72;5013694;28;20057;-73
2023/05/07 10:43:11;;;;;;;9.52;2.42;;;;;;;24.39;47.58;100842.78;5012121;28;20049;-76
2023/05/07 10:45:37;;;;;;;7.55;2.25;;;;;;;24.61;45.67;100855.16;5015173;28;20549;-73
2023/05/07 10:48:10;;;;;;;3.88;1.75;;;;;;;25.01;45.81;100853.94;5007292;28;20046;-73
2023/05/07 10:50:38;;;;;;;3.42;1.75;;;;;;;24.29;46.05;100762.88;5004131;28;20490;-73
2023/05/07 10:53:15;;;;;;;2.80;1.90;;;;;;;24.58;44.80;100828.47;5015185;28;20100;-75
2023/05/07 10:55:40;;;;;;;2.20;1.02;;;;;;;24.35;47.16;100817.06;5038628;28;20045;-74
2023/05/07 10:58:21;;;;;;;2.35;1.27;;;;;;;22.93;45.02;100844.31;5044763;28;20656;-75
2023/05/07 11:00:48;;;;;;;4.25;2.58;;;;;;;22.52;47.86;100744.47;5041479;28;20452;-69
2023/05/07 11:03:14;;;;;;;2.25;1.13;;;;;;;24.32;45.85;100814.53;5039986;28;20040;-70
2023/05/07 11:05:41;;;;;;;3.72;1.83;;;;;;;24.25;46.48;100731.78;5028742;28;20049;-73
2023/05/07 11:08:07;;;;;;;3.30;1.27;;;;;;;24.25;45.81;100822.97;5030412;28;20058;-73
2023/05/07 11:10:51;;;;;;;3.85;1.88;;;;;;;24.84;45.68;100832.47;5023752;28;20052;-71
2023/05/07 11:13:18;;;;;;;3.75;2.28;;;;;;;24.45;44.65;100809.44;5030547;28;20497;-70
2023/05/07 11:15:48;;;;;;;3.10;1.92;;;;;;;24.08;45.01;100728.16;5031837;28;20039;-70
2023/05/07 11:18:17;;;;;;;3.05;1.35;;;;;;;24.83;43.95;100828.06;5030500;28;20041;-71